KBWG/BWG METAR and TAF weather

Enter ICAO airport designator
Station Type Date Time Source
KBWG METAR 2018/07/16 23:53 UTC NOAA

KBWG 162353Z AUTO 29005KT 10SM CLR 31/23 A2994 RMK AO2 LTG DSNT SW SLP130 T03110228 10333 20294 53001


Station Type Date Time Source
KBWG Decoded METAR 2018/07/16 23:53 UTC NOAA

BOWLING GREEN-WARREN CO RGNL, KY, United States (KBWG) 36-58N 086-25W 161M
Jul 16, 2018 - 07:53 PM EDT / 2018.07.16 2353 UTC
Wind: from the WNW (290 degrees) at 6 MPH (5 KT):0
Visibility: 10 mile(s):0
Sky conditions: clear
Weather: Lightning observed
Temperature: 88.0 F (31.1 C)
Heat index: 95.5 F (35.3 C):1
Dew Point: 73.0 F (22.8 C)
Relative Humidity: 61%
Pressure (altimeter): 29.94 in. Hg (1013 hPa)
Pressure tendency: 0.00 inches (0.1 hPa) higher than three hours ago
ob: KBWG 162353Z AUTO 29005KT 10SM CLR 31/23 A2994 RMK AO2 LTG DSNT SW SLP130 T03110228 10333 20294 53001
cycle: 0

Station Type Date Time Source
KBWG TAF 2018/07/16 18:40 UTC NOAA

TAF KBWG 161738Z 1618/1718 25006KT P6SM BKN025
FM162100 27007KT P6SM SCT025 BKN035
FM171000 VRB03KT 4SM BR SCT025
FM171300 36005KT P6SM SCT020 BKN030


Example: see airport list